sensor_id;sensor_type;location;lat;lon;timestamp;pressure;altitude;pressure_sealevel;temperature;humidity
13553;BME280;6847;48.830;9.116;2023-06-04T00:01:41;97787.66;;;18.06;39.11
13553;BME280;6847;48.830;9.116;2023-06-04T00:04:10;97811.31;;;18.20;39.20
13553;BME280;6847;48.830;9.116;2023-06-04T00:06:38;97831.25;;;18.29;39.25
13553;BME280;6847;48.830;9.116;2023-06-04T00:09:06;97891.31;;;18.60;39.25
13553;BME280;6847;48.830;9.116;2023-06-04T00:11:37;97871.00;;;18.43;38.98
13553;BME280;6847;48.830;9.116;2023-06-04T00:14:09;97858.94;;;18.36;39.31
13553;BME280;6847;48.830;9.116;2023-06-04T00:16:39;97802.69;;;17.83;39.45
13553;BME280;6847;48.830;9.116;2023-06-04T00:19:22;97854.00;;;18.21;39.26
13553;BME280;6847;48.830;9.116;2023-06-04T00:21:48;97871.69;;;18.32;39.83
13553;BME280;6847;48.830;9.116;2023-06-04T00:24:16;97881.56;;;18.24;39.51
13553;BME280;6847;48.830;9.116;2023-06-04T00:26:43;97889.94;;;18.28;39.85
13553;BME280;6847;48.830;9.116;2023-06-04T00:29:17;97883.47;;;18.24;39.82
13553;BME280;6847;48.830;9.116;2023-06-04T00:31:43;97892.03;;;18.22;40.16
13553;BME280;6847;48.830;9.116;2023-06-04T00:34:17;97852.28;;;17.99;40.24
13553;BME280;6847;48.830;9.116;2023-06-04T00:36:47;97820.16;;;17.70;39.86
13553;BME280;6847;48.830;9.116;2023-06-04T00:39:14;97800.50;;;17.51;40.40
13553;BME280;6847;48.830;9.116;2023-06-04T00:41:55;97897.41;;;18.01;40.43
13553;BME280;6847;48.830;9.116;2023-06-04T00:44:31;97889.69;;;17.95;40.20
13553;BME280;6847;48.830;9.116;2023-06-04T00:47:05;97890.34;;;17.92;40.61
13553;BME280;6847;48.830;9.116;2023-06-04T00:49:37;97857.66;;;17.61;40.70
13553;BME280;6847;48.830;9.116;2023-06-04T00:52:05;97899.03;;;17.85;40.56
13553;BME280;6847;48.830;9.116;2023-06-04T00:54:32;97906.75;;;17.83;40.81
13553;BME280;6847;48.830;9.116;2023-06-04T00:57:03;97858.47;;;17.53;40.69
13553;BME280;6847;48.830;9.116;2023-06-04T00:59:35;97904.84;;;17.75;40.89
13553;BME280;6847;48.830;9.116;2023-06-04T01:02:06;97908.72;;;17.74;41.22
13553;BME280;6847;48.830;9.116;2023-06-04T01:04:42;97914.38;;;17.69;41.35
13553;BME280;6847;48.830;9.116;2023-06-04T01:07:11;97910.66;;;17.65;41.11
13553;BME280;6847;48.830;9.116;2023-06-04T01:09:43;97911.13;;;17.58;41.40
13553;BME280;6847;48.830;9.116;2023-06-04T01:15:02;97915.16;;;17.52;41.54
13553;BME280;6847;48.830;9.116;2023-06-04T01:17:34;97862.31;;;17.17;41.13
13553;BME280;6847;48.830;9.116;2023-06-04T01:20:28;97841.22;;;17.00;41.67
13553;BME280;6847;48.830;9.116;2023-06-04T01:23:28;97919.16;;;17.46;41.87
13553;BME280;6847;48.830;9.116;2023-06-04T01:26:01;97919.81;;;17.43;41.87
13553;BME280;6847;48.830;9.116;2023-06-04T01:28:36;97920.94;;;17.42;41.78
13553;BME280;6847;48.830;9.116;2023-06-04T01:31:15;97917.22;;;17.38;42.12
13553;BME280;6847;48.830;9.116;2023-06-04T01:33:43;97909.97;;;17.33;42.03
13553;BME280;6847;48.830;9.116;2023-06-04T01:36:11;97904.34;;;17.30;42.27
13553;BME280;6847;48.830;9.116;2023-06-04T01:38:37;97824.63;;;16.80;42.31
13553;BME280;6847;48.830;9.116;2023-06-04T01:41:04;97900.63;;;17.26;42.37
13553;BME280;6847;48.830;9.116;2023-06-04T01:43:31;97900.47;;;17.22;42.33
13553;BME280;6847;48.830;9.116;2023-06-04T01:46:02;97881.44;;;17.09;42.20
13553;BME280;6847;48.830;9.116;2023-06-04T01:48:35;97764.97;;;16.25;42.24
13553;BME280;6847;48.830;9.116;2023-06-04T01:51:02;97903.34;;;17.09;42.71
13553;BME280;6847;48.830;9.116;2023-06-04T01:53:37;97901.53;;;17.04;42.76
13553;BME280;6847;48.830;9.116;2023-06-04T01:56:04;97907.97;;;16.99;42.64
13553;BME280;6847;48.830;9.116;2023-06-04T01:58:41;97907.50;;;16.97;42.65
13553;BME280;6847;48.830;9.116;2023-06-04T02:01:29;97908.91;;;16.95;42.89
13553;BME280;6847;48.830;9.116;2023-06-04T02:03:57;97909.09;;;16.90;43.24
13553;BME280;6847;48.830;9.116;2023-06-04T02:06:23;97873.56;;;16.59;42.97
13553;BME280;6847;48.830;9.116;2023-06-04T02:08:55;97910.81;;;16.77;43.07
13553;BME280;6847;48.830;9.116;2023-06-04T02:11:31;97907.91;;;16.74;43.21
13553;BME280;6847;48.830;9.116;2023-06-04T02:13:58;97896.25;;;16.59;43.20
13553;BME280;6847;48.830;9.116;2023-06-04T02:16:24;97909.97;;;16.68;43.34
13553;BME280;6847;48.830;9.116;2023-06-04T02:18:52;97901.72;;;16.59;43.31
13553;BME280;6847;48.830;9.116;2023-06-04T02:21:22;97847.69;;;16.17;43.00
13553;BME280;6847;48.830;9.116;2023-06-04T02:23:49;97915.91;;;16.61;43.61
13553;BME280;6847;48.830;9.116;2023-06-04T02:26:23;97917.13;;;16.55;43.52
13553;BME280;6847;48.830;9.116;2023-06-04T02:28:50;97900.22;;;16.45;43.63
13553;BME280;6847;48.830;9.116;2023-06-04T02:31:20;97889.88;;;16.33;43.74
13553;BME280;6847;48.830;9.116;2023-06-04T02:33:47;97921.41;;;16.39;43.98
13553;BME280;6847;48.830;9.116;2023-06-04T02:36:20;97864.50;;;16.02;44.05
13553;BME280;6847;48.830;9.116;2023-06-04T02:38:46;97907.66;;;16.22;44.02
13553;BME280;6847;48.830;9.116;2023-06-04T02:41:16;97922.78;;;16.28;44.14
13553;BME280;6847;48.830;9.116;2023-06-04T02:43:43;97904.22;;;16.16;44.24
13553;BME280;6847;48.830;9.116;2023-06-04T02:46:10;97907.72;;;16.08;44.07
13553;BME280;6847;48.830;9.116;2023-06-04T02:48:40;97879.31;;;15.87;44.32
13553;BME280;6847;48.830;9.116;2023-06-04T02:51:06;97899.63;;;15.95;44.40
13553;BME280;6847;48.830;9.116;2023-06-04T02:53:43;97894.97;;;15.95;44.41
13553;BME280;6847;48.830;9.116;2023-06-04T02:56:12;97915.63;;;16.10;44.50
13553;BME280;6847;48.830;9.116;2023-06-04T02:58:52;97843.69;;;15.61;44.28
13553;BME280;6847;48.830;9.116;2023-06-04T03:01:21;97918.00;;;16.03;44.59
13553;BME280;6847;48.830;9.116;2023-06-04T03:03:55;97866.38;;;15.70;44.64
13553;BME280;6847;48.830;9.116;2023-06-04T03:06:31;97917.50;;;16.01;44.76
13553;BME280;6847;48.830;9.116;2023-06-04T03:09:19;97604.38;;;13.97;44.73
13553;BME280;6847;48.830;9.116;2023-06-04T03:11:53;97922.59;;;15.94;44.82
13553;BME280;6847;48.830;9.116;2023-06-04T03:14:35;97921.59;;;15.89;44.61
13553;BME280;6847;48.830;9.116;2023-06-04T03:17:16;97883.63;;;15.57;44.90
13553;BME280;6847;48.830;9.116;2023-06-04T03:19:43;97876.44;;;15.47;44.83
13553;BME280;6847;48.830;9.116;2023-06-04T03:22:13;97932.13;;;15.82;45.06
13553;BME280;6847;48.830;9.116;2023-06-04T03:24:46;97940.84;;;15.84;45.04
13553;BME280;6847;48.830;9.116;2023-06-04T03:27:19;97932.34;;;15.86;45.01
13553;BME280;6847;48.830;9.116;2023-06-04T03:29:59;97933.75;;;15.83;45.40
13553;BME280;6847;48.830;9.116;2023-06-04T03:32:33;97921.91;;;15.66;45.29
13553;BME280;6847;48.830;9.116;2023-06-04T03:35:08;97944.91;;;15.73;45.06
13553;BME280;6847;48.830;9.116;2023-06-04T03:37:40;97941.88;;;15.75;45.44
13553;BME280;6847;48.830;9.116;2023-06-04T03:40:48;97900.00;;;15.57;45.90
13553;BME280;6847;48.830;9.116;2023-06-04T03:43:31;97938.72;;;15.81;45.51
13553;BME280;6847;48.830;9.116;2023-06-04T03:46:30;97778.69;;;14.82;45.52
13553;BME280;6847;48.830;9.116;2023-06-04T03:49:14;97709.47;;;14.20;45.32
13553;BME280;6847;48.830;9.116;2023-06-04T03:51:52;97940.84;;;15.84;45.38
13553;BME280;6847;48.830;9.116;2023-06-04T03:54:53;97511.47;;;13.13;45.56
13553;BME280;6847;48.830;9.116;2023-06-04T03:57:25;97831.47;;;15.23;45.31
13553;BME280;6847;48.830;9.116;2023-06-04T03:59:54;97932.13;;;15.82;45.63
13553;BME280;6847;48.830;9.116;2023-06-04T04:02:32;97854.25;;;15.40;45.50
13553;BME280;6847;48.830;9.116;2023-06-04T04:05:05;97943.47;;;15.98;45.63
13553;BME280;6847;48.830;9.116;2023-06-04T04:07:53;97891.19;;;15.60;45.68
13553;BME280;6847;48.830;9.116;2023-06-04T04:10:21;97928.91;;;15.80;45.49
13553;BME280;6847;48.830;9.116;2023-06-04T04:15:56;97956.97;;;15.95;45.77
13553;BME280;6847;48.830;9.116;2023-06-04T04:18:23;97957.94;;;15.99;45.82
13553;BME280;6847;48.830;9.116;2023-06-04T04:21:31;97964.41;;;16.03;46.15
13553;BME280;6847;48.830;9.116;2023-06-04T04:24:43;97963.81;;;16.06;46.00
13553;BME280;6847;48.830;9.116;2023-06-04T04:27:19;97950.25;;;16.01;45.79
13553;BME280;6847;48.830;9.116;2023-06-04T04:29:53;97957.53;;;16.05;45.84
13553;BME280;6847;48.830;9.116;2023-06-04T04:32:28;97975.63;;;16.23;46.04
13553;BME280;6847;48.830;9.116;2023-06-04T04:35:02;97975.00;;;16.26;45.79
13553;BME280;6847;48.830;9.116;2023-06-04T04:37:59;97882.25;;;15.68;45.83
13553;BME280;6847;48.830;9.116;2023-06-04T04:40:28;97969.72;;;16.30;45.67
13553;BME280;6847;48.830;9.116;2023-06-04T04:43:00;97884.88;;;15.73;45.64
13553;BME280;6847;48.830;9.116;2023-06-04T04:45:28;97912.63;;;15.98;46.17
13553;BME280;6847;48.830;9.116;2023-06-04T04:47:59;97980.25;;;16.45;45.73
13553;BME280;6847;48.830;9.116;2023-06-04T04:50:35;97975.66;;;16.54;45.74
13553;BME280;6847;48.830;9.116;2023-06-04T04:53:16;97881.47;;;15.99;45.82
13553;BME280;6847;48.830;9.116;2023-06-04T04:55:52;97980.44;;;16.71;45.72
13553;BME280;6847;48.830;9.116;2023-06-04T04:58:24;97964.66;;;16.68;45.60
13553;BME280;6847;48.830;9.116;2023-06-04T05:00:56;97940.78;;;16.60;45.75
13553;BME280;6847;48.830;9.116;2023-06-04T05:03:31;97826.72;;;15.95;45.73
13553;BME280;6847;48.830;9.116;2023-06-04T05:06:23;97754.34;;;15.53;45.67
13553;BME280;6847;48.830;9.116;2023-06-04T05:08:59;97806.91;;;15.89;45.57
13553;BME280;6847;48.830;9.116;2023-06-04T05:11:42;97990.06;;;17.08;45.63
13553;BME280;6847;48.830;9.116;2023-06-04T05:14:21;97992.47;;;17.10;45.70
13553;BME280;6847;48.830;9.116;2023-06-04T05:16:51;97546.25;;;14.15;45.60
13553;BME280;6847;48.830;9.116;2023-06-04T05:19:52;97890.72;;;16.42;45.42
13553;BME280;6847;48.830;9.116;2023-06-04T05:22:26;97972.97;;;16.94;45.69
13553;BME280;6847;48.830;9.116;2023-06-04T05:25:16;97961.03;;;16.90;45.79
13553;BME280;6847;48.830;9.116;2023-06-04T05:28:03;97992.47;;;17.10;45.53
13553;BME280;6847;48.830;9.116;2023-06-04T05:33:38;98001.56;;;17.36;45.68
13553;BME280;6847;48.830;9.116;2023-06-04T05:36:06;98017.25;;;17.53;45.52
13553;BME280;6847;48.830;9.116;2023-06-04T05:38:41;97995.97;;;17.50;45.72
13553;BME280;6847;48.830;9.116;2023-06-04T05:41:10;98024.03;;;17.64;45.30
13553;BME280;6847;48.830;9.116;2023-06-04T05:43:37;98025.19;;;17.71;45.43
13553;BME280;6847;48.830;9.116;2023-06-04T05:46:34;98006.16;;;17.75;45.36
13553;BME280;6847;48.830;9.116;2023-06-04T05:49:05;98019.22;;;17.95;45.48
13553;BME280;6847;48.830;9.116;2023-06-04T05:51:34;98026.63;;;18.03;45.00
13553;BME280;6847;48.830;9.116;2023-06-04T05:54:01;98021.00;;;18.08;45.08
13553;BME280;6847;48.830;9.116;2023-06-04T05:56:30;98018.28;;;18.08;45.03
13553;BME280;6847;48.830;9.116;2023-06-04T05:59:05;98029.22;;;18.08;45.12
13553;BME280;6847;48.830;9.116;2023-06-04T06:01:40;98030.53;;;18.20;45.33
13553;BME280;6847;48.830;9.116;2023-06-04T06:04:13;98030.66;;;18.32;44.79
13553;BME280;6847;48.830;9.116;2023-06-04T06:07:02;98009.06;;;18.39;44.99
13553;BME280;6847;48.830;9.116;2023-06-04T06:09:29;98022.72;;;18.56;45.02
13553;BME280;6847;48.830;9.116;2023-06-04T06:11:57;98022.56;;;18.61;44.81
13553;BME280;6847;48.830;9.116;2023-06-04T06:14:27;98027.91;;;18.66;44.71
13553;BME280;6847;48.830;9.116;2023-06-04T06:17:02;98023.19;;;18.75;44.99
13553;BME280;6847;48.830;9.116;2023-06-04T06:19:30;98031.22;;;18.89;44.65
13553;BME280;6847;48.830;9.116;2023-06-04T06:22:02;98028.91;;;19.08;44.13
13553;BME280;6847;48.830;9.116;2023-06-04T06:24:29;98028.00;;;19.25;44.46
13553;BME280;6847;48.830;9.116;2023-06-04T06:27:06;98032.28;;;19.43;44.07
13553;BME280;6847;48.830;9.116;2023-06-04T06:29:35;98037.63;;;19.69;43.66
13553;BME280;6847;48.830;9.116;2023-06-04T06:32:04;98036.84;;;19.89;43.82
13553;BME280;6847;48.830;9.116;2023-06-04T06:34:53;97951.63;;;19.56;43.45
13553;BME280;6847;48.830;9.116;2023-06-04T06:37:28;97887.41;;;19.40;42.93
13553;BME280;6847;48.830;9.116;2023-06-04T06:39:59;98034.56;;;20.54;43.04
13553;BME280;6847;48.830;9.116;2023-06-04T06:42:50;98026.34;;;20.66;42.83
13553;BME280;6847;48.830;9.116;2023-06-04T06:45:17;98044.53;;;20.91;42.71
13553;BME280;6847;48.830;9.116;2023-06-04T06:47:46;98049.59;;;21.01;42.56
13553;BME280;6847;48.830;9.116;2023-06-04T06:50:18;98051.44;;;21.10;42.53
13553;BME280;6847;48.830;9.116;2023-06-04T06:52:46;98047.97;;;21.00;42.47
13553;BME280;6847;48.830;9.116;2023-06-04T06:55:16;98050.69;;;20.88;42.47
13553;BME280;6847;48.830;9.116;2023-06-04T06:57:43;98043.59;;;20.87;42.38
13553;BME280;6847;48.830;9.116;2023-06-04T07:00:16;98050.50;;;20.93;42.30
13553;BME280;6847;48.830;9.116;2023-06-04T07:02:45;98045.00;;;21.05;42.11
13553;BME280;6847;48.830;9.116;2023-06-04T07:05:14;98048.81;;;21.25;41.71
13553;BME280;6847;48.830;9.116;2023-06-04T07:07:52;98009.00;;;21.11;41.41
13553;BME280;6847;48.830;9.116;2023-06-04T07:10:23;98052.41;;;21.62;41.28
13553;BME280;6847;48.830;9.116;2023-06-04T07:12:52;98056.72;;;21.88;41.02
13553;BME280;6847;48.830;9.116;2023-06-04T07:15:28;97826.09;;;20.72;40.54
13553;BME280;6847;48.830;9.116;2023-06-04T07:18:11;97660.28;;;20.22;40.30
13553;BME280;6847;48.830;9.116;2023-06-04T07:25:19;97663.03;;;21.15;39.59
13553;BME280;6847;48.830;9.116;2023-06-04T07:32:45;98067.34;;;23.88;39.57
13553;BME280;6847;48.830;9.116;2023-06-04T07:40:01;97847.63;;;22.45;39.48
13553;BME280;6847;48.830;9.116;2023-06-04T07:47:59;98066.34;;;24.50;38.75
13553;BME280;6847;48.830;9.116;2023-06-04T07:50:28;98041.88;;;24.52;38.56
13553;BME280;6847;48.830;9.116;2023-06-04T07:52:56;98060.63;;;24.82;38.64
13553;BME280;6847;48.830;9.116;2023-06-04T07:55:28;98051.03;;;24.95;38.42
13553;BME280;6847;48.830;9.116;2023-06-04T07:58:02;97993.63;;;24.73;38.26
13553;BME280;6847;48.830;9.116;2023-06-04T08:00:28;98021.41;;;24.99;38.00
13553;BME280;6847;48.830;9.116;2023-06-04T08:03:01;98038.03;;;24.99;38.16
13553;BME280;6847;48.830;9.116;2023-06-04T08:05:27;98053.25;;;25.08;38.08
13553;BME280;6847;48.830;9.116;2023-06-04T08:07:53;98049.50;;;25.20;37.96
13553;BME280;6847;48.830;9.116;2023-06-04T08:10:22;98048.03;;;25.26;37.71
13553;BME280;6847;48.830;9.116;2023-06-04T08:12:51;98042.50;;;25.26;37.71
13553;BME280;6847;48.830;9.116;2023-06-04T08:15:41;98045.56;;;25.21;37.82
13553;BME280;6847;48.830;9.116;2023-06-04T08:18:09;97987.03;;;24.81;37.60
13553;BME280;6847;48.830;9.116;2023-06-04T08:20:35;97921.25;;;24.51;37.64
13553;BME280;6847;48.830;9.116;2023-06-04T08:23:04;97784.22;;;23.73;37.21
13553;BME280;6847;48.830;9.116;2023-06-04T08:25:33;98027.06;;;25.52;37.08
13553;BME280;6847;48.830;9.116;2023-06-04T08:28:06;98040.22;;;25.81;37.00
13553;BME280;6847;48.830;9.116;2023-06-04T08:30:38;97979.59;;;25.57;36.59
13553;BME280;6847;48.830;9.116;2023-06-04T08:33:18;98054.63;;;26.83;36.07
13553;BME280;6847;48.830;9.116;2023-06-04T08:35:49;98048.94;;;27.98;34.53
13553;BME280;6847;48.830;9.116;2023-06-04T08:38:15;97780.09;;;27.69;32.70
13553;BME280;6847;48.830;9.116;2023-06-04T08:40:43;98066.50;;;31.29;30.82
13553;BME280;6847;48.830;9.116;2023-06-04T08:43:10;98059.06;;;33.06;29.32
13553;BME280;6847;48.830;9.116;2023-06-04T08:45:49;98049.13;;;34.45;27.86
13553;BME280;6847;48.830;9.116;2023-06-04T08:48:18;98072.25;;;35.80;27.22
13553;BME280;6847;48.830;9.116;2023-06-04T08:50:47;98070.44;;;36.77;26.63
13553;BME280;6847;48.830;9.116;2023-06-04T08:53:17;98067.53;;;37.05;26.88
13553;BME280;6847;48.830;9.116;2023-06-04T08:55:46;98070.03;;;37.03;26.80
13553;BME280;6847;48.830;9.116;2023-06-04T08:58:16;98071.94;;;37.06;26.83
13553;BME280;6847;48.830;9.116;2023-06-04T09:00:44;98052.19;;;37.06;26.74
13553;BME280;6847;48.830;9.116;2023-06-04T09:03:12;98071.41;;;37.88;25.59
13553;BME280;6847;48.830;9.116;2023-06-04T09:05:47;98077.16;;;38.31;25.18
13553;BME280;6847;48.830;9.116;2023-06-04T09:08:17;98085.41;;;38.60;25.67
13553;BME280;6847;48.830;9.116;2023-06-04T09:10:44;98070.81;;;38.62;25.11
13553;BME280;6847;48.830;9.116;2023-06-04T09:13:18;98070.28;;;38.54;25.30
13553;BME280;6847;48.830;9.116;2023-06-04T09:16:03;98082.63;;;38.91;24.83
13553;BME280;6847;48.830;9.116;2023-06-04T09:18:31;98083.84;;;39.03;24.86
13553;BME280;6847;48.830;9.116;2023-06-04T09:21:24;98077.06;;;39.31;24.25
13553;BME280;6847;48.830;9.116;2023-06-04T09:23:54;98085.63;;;39.40;23.90
13553;BME280;6847;48.830;9.116;2023-06-04T09:26:26;98076.47;;;38.83;24.55
13553;BME280;6847;48.830;9.116;2023-06-04T09:28:53;98082.88;;;38.75;24.12
13553;BME280;6847;48.830;9.116;2023-06-04T09:31:23;98082.38;;;38.98;23.45
13553;BME280;6847;48.830;9.116;2023-06-04T09:33:54;98048.22;;;39.23;23.06
13553;BME280;6847;48.830;9.116;2023-06-04T09:36:30;98033.78;;;39.31;22.83
13553;BME280;6847;48.830;9.116;2023-06-04T09:39:02;98084.75;;;39.31;22.86
13553;BME280;6847;48.830;9.116;2023-06-04T09:41:30;98082.09;;;38.96;23.29
13553;BME280;6847;48.830;9.116;2023-06-04T09:44:00;98076.56;;;39.23;22.85
13553;BME280;6847;48.830;9.116;2023-06-04T09:46:31;98071.47;;;39.49;22.45
13553;BME280;6847;48.830;9.116;2023-06-04T09:49:02;98075.34;;;39.74;21.95
13553;BME280;6847;48.830;9.116;2023-06-04T09:51:33;98076.06;;;38.94;22.53
13553;BME280;6847;48.830;9.116;2023-06-04T09:54:02;98073.69;;;38.71;22.47
13553;BME280;6847;48.830;9.116;2023-06-04T09:56:29;98083.72;;;39.06;22.13
13553;BME280;6847;48.830;9.116;2023-06-04T09:58:59;98070.41;;;39.56;21.79
13553;BME280;6847;48.830;9.116;2023-06-04T10:01:29;98089.09;;;39.84;21.44
13553;BME280;6847;48.830;9.116;2023-06-04T10:04:02;98073.06;;;39.50;21.71
13553;BME280;6847;48.830;9.116;2023-06-04T10:06:36;98070.13;;;39.72;21.27
13553;BME280;6847;48.830;9.116;2023-06-04T10:09:06;98070.84;;;39.85;21.26
13553;BME280;6847;48.830;9.116;2023-06-04T10:11:35;98077.78;;;39.93;21.30
13553;BME280;6847;48.830;9.116;2023-06-04T10:14:10;98070.22;;;40.00;20.94
13553;BME280;6847;48.830;9.116;2023-06-04T10:16:41;98080.34;;;40.28;20.71
13553;BME280;6847;48.830;9.116;2023-06-04T10:19:18;98087.56;;;40.65;20.38
13553;BME280;6847;48.830;9.116;2023-06-04T10:21:48;98053.94;;;39.82;20.57
13553;BME280;6847;48.830;9.116;2023-06-04T10:27:07;98060.25;;;39.37;20.82
13553;BME280;6847;48.830;9.116;2023-06-04T10:29:42;98064.94;;;39.31;20.59
13553;BME280;6847;48.830;9.116;2023-06-04T10:32:11;98060.25;;;39.37;20.65
13553;BME280;6847;48.830;9.116;2023-06-04T10:34:38;98044.94;;;39.65;20.25
13553;BME280;6847;48.830;9.116;2023-06-04T10:37:18;98059.22;;;40.29;20.01
13553;BME280;6847;48.830;9.116;2023-06-04T10:39:50;98053.53;;;40.84;19.59
13553;BME280;6847;48.830;9.116;2023-06-04T10:42:20;98059.25;;;41.17;19.41
13553;BME280;6847;48.830;9.116;2023-06-04T10:44:52;98056.50;;;41.41;19.48
13553;BME280;6847;48.830;9.116;2023-06-04T10:47:20;98054.84;;;41.58;18.89
13553;BME280;6847;48.830;9.116;2023-06-04T10:49:51;98057.06;;;41.54;18.94
13553;BME280;6847;48.830;9.116;2023-06-04T10:52:51;98052.97;;;41.79;18.72
13553;BME280;6847;48.830;9.116;2023-06-04T10:55:18;98062.09;;;41.83;19.18
13553;BME280;6847;48.830;9.116;2023-06-04T10:57:51;98015.03;;;41.58;19.02
13553;BME280;6847;48.830;9.116;2023-06-04T11:00:22;98059.38;;;41.64;18.85
13553;BME280;6847;48.830;9.116;2023-06-04T11:03:01;98053.09;;;41.84;19.04
13553;BME280;6847;48.830;9.116;2023-06-04T11:05:41;98038.75;;;41.79;18.47
13553;BME280;6847;48.830;9.116;2023-06-04T11:08:14;98051.78;;;41.70;18.61
13553;BME280;6847;48.830;9.116;2023-06-04T11:10:43;98055.16;;;41.84;18.65
13553;BME280;6847;48.830;9.116;2023-06-04T11:13:11;98044.38;;;41.88;18.48
13553;BME280;6847;48.830;9.116;2023-06-04T11:15:39;98039.59;;;40.86;18.79
13553;BME280;6847;48.830;9.116;2023-06-04T11:18:07;98044.78;;;39.78;19.48
13553;BME280;6847;48.830;9.116;2023-06-04T11:20:33;98023.38;;;39.28;19.53
13553;BME280;6847;48.830;9.116;2023-06-04T11:23:04;98039.72;;;39.54;19.21
13553;BME280;6847;48.830;9.116;2023-06-04T11:25:34;98036.09;;;39.63;19.42
13553;BME280;6847;48.830;9.116;2023-06-04T11:28:00;98040.19;;;39.62;19.21
13553;BME280;6847;48.830;9.116;2023-06-04T11:30:28;98043.78;;;39.13;19.68
13553;BME280;6847;48.830;9.116;2023-06-04T11:33:02;98035.31;;;39.22;19.17
13553;BME280;6847;48.830;9.116;2023-06-04T11:35:38;98033.56;;;39.47;19.20
13553;BME280;6847;48.830;9.116;2023-06-04T11:38:05;98026.94;;;39.50;18.92
13553;BME280;6847;48.830;9.116;2023-06-04T11:40:33;98044.94;;;39.74;18.75
13553;BME280;6847;48.830;9.116;2023-06-04T11:43:01;98035.78;;;39.70;19.02
13553;BME280;6847;48.830;9.116;2023-06-04T11:45:31;98036.41;;;39.56;18.94
13553;BME280;6847;48.830;9.116;2023-06-04T11:47:58;98031.38;;;39.60;19.05
13553;BME280;6847;48.830;9.116;2023-06-04T11:50:29;98030.31;;;39.27;19.31
13553;BME280;6847;48.830;9.116;2023-06-04T11:52:58;98021.19;;;38.70;19.03
13553;BME280;6847;48.830;9.116;2023-06-04T11:55:28;98029.78;;;38.57;19.54
13553;BME280;6847;48.830;9.116;2023-06-04T11:58:03;98035.47;;;38.44;19.16
13553;BME280;6847;48.830;9.116;2023-06-04T12:00:32;98037.47;;;38.22;19.25
13553;BME280;6847;48.830;9.116;2023-06-04T12:02:59;98035.19;;;38.08;19.50
13553;BME280;6847;48.830;9.116;2023-06-04T12:05:31;97982.16;;;37.65;20.03
13553;BME280;6847;48.830;9.116;2023-06-04T12:08:07;98028.31;;;37.84;19.95
13553;BME280;6847;48.830;9.116;2023-06-04T12:10:39;98021.22;;;37.79;19.49
13553;BME280;6847;48.830;9.116;2023-06-04T12:13:07;98019.00;;;37.61;20.19
13553;BME280;6847;48.830;9.116;2023-06-04T12:15:36;98027.03;;;37.25;19.87
13553;BME280;6847;48.830;9.116;2023-06-04T12:18:04;98019.34;;;37.00;20.21
13553;BME280;6847;48.830;9.116;2023-06-04T12:20:33;98012.44;;;36.88;19.98
13553;BME280;6847;48.830;9.116;2023-06-04T12:23:01;98010.28;;;36.92;20.00
13553;BME280;6847;48.830;9.116;2023-06-04T12:25:30;98002.50;;;36.84;20.00
13553;BME280;6847;48.830;9.116;2023-06-04T12:27:58;98001.69;;;36.83;20.01
13553;BME280;6847;48.830;9.116;2023-06-04T12:30:39;98002.84;;;36.98;19.72
13553;BME280;6847;48.830;9.116;2023-06-04T12:33:07;97998.25;;;37.17;19.75
13553;BME280;6847;48.830;9.116;2023-06-04T12:35:34;98009.72;;;37.48;19.83
13553;BME280;6847;48.830;9.116;2023-06-04T12:38:04;98005.97;;;37.76;19.35
13553;BME280;6847;48.830;9.116;2023-06-04T12:40:34;97979.72;;;37.89;19.06
13553;BME280;6847;48.830;9.116;2023-06-04T12:43:01;98006.31;;;38.13;19.58
13553;BME280;6847;48.830;9.116;2023-06-04T12:45:28;98010.94;;;37.72;19.71
13553;BME280;6847;48.830;9.116;2023-06-04T12:48:03;98001.72;;;37.34;19.42
13553;BME280;6847;48.830;9.116;2023-06-04T12:50:31;98013.50;;;37.20;19.89
13553;BME280;6847;48.830;9.116;2023-06-04T12:52:58;98000.03;;;37.49;19.62
13553;BME280;6847;48.830;9.116;2023-06-04T12:55:25;98005.72;;;37.84;18.95
13553;BME280;6847;48.830;9.116;2023-06-04T12:57:52;97996.31;;;38.21;19.06
13553;BME280;6847;48.830;9.116;2023-06-04T13:00:19;97995.81;;;38.57;18.65
13553;BME280;6847;48.830;9.116;2023-06-04T13:02:47;97995.09;;;38.97;18.24
13553;BME280;6847;48.830;9.116;2023-06-04T13:05:17;98003.00;;;39.42;18.22
13553;BME280;6847;48.830;9.116;2023-06-04T13:07:43;98001.16;;;39.75;18.01
13553;BME280;6847;48.830;9.116;2023-06-04T13:10:10;97990.34;;;39.92;18.03
13553;BME280;6847;48.830;9.116;2023-06-04T13:12:37;97996.16;;;39.98;17.82
13553;BME280;6847;48.830;9.116;2023-06-04T13:15:06;98014.13;;;39.94;17.83
13553;BME280;6847;48.830;9.116;2023-06-04T13:17:33;98003.09;;;39.87;18.01
13553;BME280;6847;48.830;9.116;2023-06-04T13:20:01;97946.31;;;39.42;17.78
13553;BME280;6847;48.830;9.116;2023-06-04T13:22:30;98000.25;;;39.38;18.03
13553;BME280;6847;48.830;9.116;2023-06-04T13:24:58;98001.75;;;39.52;17.95
13553;BME280;6847;48.830;9.116;2023-06-04T13:27:25;97979.75;;;39.74;17.72
13553;BME280;6847;48.830;9.116;2023-06-04T13:29:54;98002.47;;;40.29;17.41
13553;BME280;6847;48.830;9.116;2023-06-04T13:32:21;97986.22;;;40.48;17.26
13553;BME280;6847;48.830;9.116;2023-06-04T13:34:48;98003.94;;;40.85;17.14
13553;BME280;6847;48.830;9.116;2023-06-04T13:37:16;97995.75;;;40.87;17.09
13553;BME280;6847;48.830;9.116;2023-06-04T13:39:44;98013.69;;;41.02;17.07
13553;BME280;6847;48.830;9.116;2023-06-04T13:42:15;97999.28;;;41.15;16.99
13553;BME280;6847;48.830;9.116;2023-06-04T13:44:43;98001.09;;;41.36;16.99
13553;BME280;6847;48.830;9.116;2023-06-04T13:47:12;97974.78;;;41.26;16.66
13553;BME280;6847;48.830;9.116;2023-06-04T13:49:39;98006.41;;;41.43;16.57
13553;BME280;6847;48.830;9.116;2023-06-04T13:52:08;98004.94;;;41.57;16.60
13553;BME280;6847;48.830;9.116;2023-06-04T13:54:36;98010.03;;;41.53;16.66
13553;BME280;6847;48.830;9.116;2023-06-04T13:57:05;97994.44;;;41.39;16.72
13553;BME280;6847;48.830;9.116;2023-06-04T13:59:33;97975.50;;;41.03;17.09
13553;BME280;6847;48.830;9.116;2023-06-04T14:02:00;98006.66;;;40.79;16.91
13553;BME280;6847;48.830;9.116;2023-06-04T14:04:28;97997.59;;;40.29;17.16
13553;BME280;6847;48.830;9.116;2023-06-04T14:06:55;97995.22;;;40.28;17.10
13553;BME280;6847;48.830;9.116;2023-06-04T14:09:25;97990.19;;;40.14;17.10